createdAt,value
2022-08-09T00:00:13.890Z,100800.56
2022-08-09T00:02:42.986Z,100803.06
2022-08-09T00:06:18.189Z,100805.97
2022-08-09T00:08:10.055Z,100807.09
2022-08-09T00:10:38.382Z,100801.47
2022-08-09T00:13:17.588Z,100795.53
2022-08-09T00:15:59.340Z,100803.53
2022-08-09T00:18:35.821Z,100816.53
2022-08-09T00:21:07.819Z,100814.31
2022-08-09T00:23:57.762Z,100811.97
2022-08-09T00:26:29.935Z,100816.00
2022-08-09T00:29:00.856Z,100808.03
2022-08-09T00:31:55.886Z,100816.38
2022-08-09T00:34:14.175Z,100805.81
2022-08-09T00:36:42.056Z,100804.44
2022-08-09T00:39:16.793Z,100805.66
2022-08-09T00:44:10.586Z,100805.00
2022-08-09T00:44:43.284Z,100796.69
2022-08-09T00:47:15.316Z,100793.22
2022-08-09T00:49:42.646Z,100797.44
2022-08-09T00:52:19.534Z,100801.84
2022-08-09T00:54:48.482Z,100796.09
2022-08-09T00:57:31.866Z,100796.63
2022-08-09T01:00:00.903Z,100788.81
2022-08-09T01:02:31.258Z,100789.34
2022-08-09T01:05:14.235Z,100786.06
2022-08-09T01:08:00.221Z,100778.38
2022-08-09T01:10:51.170Z,100787.41
2022-08-09T01:13:59.041Z,100781.19
2022-08-09T01:16:31.858Z,100786.88
2022-08-09T01:19:04.878Z,100784.34
2022-08-09T01:21:51.130Z,100788.28
2022-08-09T01:24:32.351Z,100785.44
2022-08-09T01:27:04.185Z,100783.25
2022-08-09T01:29:55.964Z,100781.91
2022-08-09T01:32:31.873Z,100775.97
2022-08-09T01:35:07.008Z,100780.25
2022-08-09T01:38:08.418Z,100772.63
2022-08-09T01:40:35.694Z,100771.28
2022-08-09T01:43:04.574Z,100770.13
2022-08-09T01:45:34.368Z,100765.69
2022-08-09T01:48:11.572Z,100774.19
2022-08-09T01:50:48.218Z,100769.94
2022-08-09T01:53:19.529Z,100774.19
2022-08-09T01:55:48.205Z,100766.88
2022-08-09T01:58:16.639Z,100762.09
2022-08-09T02:00:46.282Z,100759.84
2022-08-09T02:03:19.422Z,100757.41
2022-08-09T02:06:03.453Z,100766.13
2022-08-09T02:08:39.997Z,100759.66
2022-08-09T02:11:20.161Z,100753.50
2022-08-09T02:14:06.586Z,100765.41
2022-08-09T02:16:53.438Z,100759.31
2022-08-09T02:19:24.110Z,100760.69
2022-08-09T02:22:08.047Z,100750.34
2022-08-09T02:24:38.114Z,100749.31
2022-08-09T02:27:08.570Z,100745.44
2022-08-09T02:29:41.636Z,100737.06
2022-08-09T02:32:10.829Z,100738.59
2022-08-09T02:34:41.594Z,100737.91
2022-08-09T02:37:31.741Z,100732.16
2022-08-09T02:40:09.307Z,100734.25
2022-08-09T02:42:43.100Z,100743.78
2022-08-09T02:45:26.712Z,100743.47
2022-08-09T02:48:00.886Z,100743.13
2022-08-09T02:50:33.356Z,100743.13
2022-08-09T02:53:07.743Z,100750.59
2022-08-09T02:55:57.485Z,100749.28
2022-08-09T02:58:35.895Z,100754.25
2022-08-09T03:01:08.318Z,100745.56
2022-08-09T03:04:16.526Z,100747.25
2022-08-09T03:06:27.854Z,100745.75
2022-08-09T03:08:56.846Z,100744.06
2022-08-09T03:12:04.649Z,100746.78
2022-08-09T03:14:12.802Z,100753.59
2022-08-09T03:16:44.986Z,100754.13
2022-08-09T03:19:14.108Z,100758.19
2022-08-09T03:21:43.656Z,100760.91
2022-08-09T03:24:31.175Z,100773.03
2022-08-09T03:27:03.693Z,100766.56
2022-08-09T03:29:35.652Z,100767.94
2022-08-09T03:32:22.868Z,100772.69
2022-08-09T03:34:49.510Z,100769.63
2022-08-09T03:37:54.757Z,100773.38
2022-08-09T03:40:08.430Z,100770.16
2022-08-09T03:42:39.801Z,100773.03
2022-08-09T03:45:10.492Z,100773.03
2022-08-09T03:47:41.818Z,100777.81
2022-08-09T03:50:11.125Z,100773.41
2022-08-09T03:52:40.560Z,100770.19
2022-08-09T03:55:10.665Z,100762.34
2022-08-09T03:57:44.662Z,100769.31
2022-08-09T04:00:29.325Z,100764.53
2022-08-09T04:02:58.338Z,100765.41
2022-08-09T04:05:27.786Z,100763.53
2022-08-09T04:07:57.328Z,100762.69
2022-08-09T04:10:29.049Z,100770.84
2022-08-09T04:12:58.267Z,100761.16
2022-08-09T04:15:40.437Z,100764.91
2022-08-09T04:18:16.495Z,100775.13
2022-08-09T04:20:46.003Z,100762.34
2022-08-09T04:23:17.308Z,100773.22
2022-08-09T04:25:49.677Z,100769.66
2022-08-09T04:28:34.293Z,100776.59
2022-08-09T04:31:09.278Z,100779.16
2022-08-09T04:33:52.951Z,100790.56
2022-08-09T04:36:25.947Z,100789.56
2022-08-09T04:38:53.658Z,100791.06
2022-08-09T04:41:24.018Z,100785.28
2022-08-09T04:44:05.281Z,100792.25
2022-08-09T04:46:57.455Z,100793.25
2022-08-09T04:49:40.831Z,100786.31
2022-08-09T04:52:09.641Z,100795.31
2022-08-09T04:54:37.040Z,100799.34
2022-08-09T04:57:04.241Z,100784.75
2022-08-09T04:59:31.537Z,100784.22
2022-08-09T05:01:58.221Z,100786.91
2022-08-09T05:04:31.147Z,100792.53
2022-08-09T05:06:58.565Z,100784.00
2022-08-09T05:09:41.871Z,100791.47
2022-08-09T05:12:11.089Z,100794.16
2022-08-09T05:14:39.163Z,100791.56
2022-08-09T05:18:36.760Z,100789.66
2022-08-09T05:19:56.656Z,100794.47
2022-08-09T05:22:33.458Z,100783.53
2022-08-09T05:25:04.802Z,100788.25
2022-08-09T05:27:31.435Z,100785.84
2022-08-09T05:29:58.073Z,100788.16
2022-08-09T05:32:26.265Z,100790.00
2022-08-09T05:34:56.758Z,100796.44
2022-08-09T05:37:23.837Z,100796.38
2022-08-09T05:39:51.795Z,100795.28
2022-08-09T05:42:21.787Z,100803.41
2022-08-09T05:44:53.557Z,100800.44
2022-08-09T05:47:25.281Z,100796.78
2022-08-09T05:50:31.136Z,100796.56
2022-08-09T05:52:43.536Z,100809.47
2022-08-09T05:55:20.963Z,100801.59
2022-08-09T05:57:55.525Z,100804.25
2022-08-09T06:00:29.144Z,100807.06
2022-08-09T06:03:00.126Z,100807.03
2022-08-09T06:05:50.653Z,100797.91
2022-08-09T06:08:19.873Z,100795.94
2022-08-09T06:10:52.766Z,100804.03
2022-08-09T06:13:20.647Z,100804.78
2022-08-09T06:15:51.745Z,100799.22
2022-08-09T06:18:20.909Z,100799.97
2022-08-09T06:20:54.780Z,100796.13
2022-08-09T06:23:55.197Z,100800.66
2022-08-09T06:26:14.839Z,100794.03
2022-08-09T06:28:47.227Z,100800.72
2022-08-09T06:31:13.800Z,100793.72
2022-08-09T06:33:42.108Z,100789.81
2022-08-09T06:36:15.364Z,100799.19
2022-08-09T06:38:50.282Z,100793.59
2022-08-09T06:41:18.299Z,100799.59
2022-08-09T06:43:46.953Z,100801.19
2022-08-09T06:46:39.540Z,100792.81
2022-08-09T06:49:01.462Z,100803.25
2022-08-09T06:51:28.245Z,100805.84
2022-08-09T06:53:55.352Z,100802.78
2022-08-09T06:56:21.875Z,100804.97
2022-08-09T07:00:56.498Z,100807.34
2022-08-09T07:01:57.878Z,100807.41
2022-08-09T07:04:27.096Z,100808.13
2022-08-09T07:07:00.443Z,100809.19
2022-08-09T07:09:54.900Z,100810.94
2022-08-09T07:12:18.140Z,100804.88
2022-08-09T07:14:51.188Z,100809.38
2022-08-09T07:17:19.889Z,100804.56
2022-08-09T07:19:48.229Z,100802.69
2022-08-09T07:22:39.585Z,100799.97
2022-08-09T07:25:10.785Z,100800.84
2022-08-09T07:27:42.398Z,100804.91
2022-08-09T07:30:13.346Z,100799.03
2022-08-09T07:32:43.591Z,100801.81
2022-08-09T07:35:14.730Z,100796.78
2022-08-09T07:37:45.734Z,100799.97
2022-08-09T07:40:20.370Z,100799.34
2022-08-09T07:42:54.509Z,100799.09
2022-08-09T07:45:33.328Z,100794.44
2022-08-09T07:48:06.127Z,100792.13
2022-08-09T07:50:36.771Z,100799.97
2022-08-09T07:53:04.532Z,100798.50
2022-08-09T07:55:41.609Z,100803.13
2022-08-09T07:58:18.638Z,100801.00
2022-08-09T08:00:55.961Z,100801.84
2022-08-09T08:03:33.123Z,100809.41
2022-08-09T08:06:03.492Z,100807.69
2022-08-09T08:09:02.323Z,100806.41
2022-08-09T08:12:10.225Z,100801.09
2022-08-09T08:14:04.820Z,100803.81
2022-08-09T08:16:32.968Z,100804.59
2022-08-09T08:19:03.233Z,100799.69
2022-08-09T08:21:31.484Z,100796.25
2022-08-09T08:24:00.879Z,100786.22
2022-08-09T08:26:41.833Z,100788.47
2022-08-09T08:29:15.077Z,100790.34
2022-08-09T08:32:03.927Z,100794.06
2022-08-09T08:34:34.665Z,100795.63
2022-08-09T08:37:03.959Z,100793.59
2022-08-09T08:39:39.663Z,100793.69
2022-08-09T08:42:11.329Z,100788.75
2022-08-09T08:44:38.060Z,100791.22
2022-08-09T08:47:12.781Z,100798.13
2022-08-09T08:49:47.757Z,100788.25
2022-08-09T08:52:52.734Z,100790.84
2022-08-09T08:55:08.507Z,100784.72
2022-08-09T08:57:37.106Z,100789.25
2022-08-09T09:00:13.150Z,100788.84
2022-08-09T09:02:52.227Z,100788.03
2022-08-09T09:05:57.433Z,100783.41
2022-08-09T09:08:29.249Z,100782.38
2022-08-09T09:11:01.057Z,100782.25
2022-08-09T09:13:34.702Z,100779.78
2022-08-09T09:16:14.050Z,100779.31
2022-08-09T09:18:48.737Z,100784.25
2022-08-09T09:21:25.225Z,100783.78
2022-08-09T09:23:58.369Z,100781.50
2022-08-09T09:26:26.159Z,100787.84
2022-08-09T09:29:03.663Z,100782.72
2022-08-09T09:32:03.726Z,100789.00
2022-08-09T09:34:23.872Z,100790.66
2022-08-09T09:36:53.349Z,100774.59
2022-08-09T09:39:50.238Z,100775.19
2022-08-09T09:42:25.819Z,100783.31
2022-08-09T09:45:00.433Z,100785.47
2022-08-09T09:47:28.732Z,100781.06
2022-08-09T09:50:14.267Z,100778.50
2022-08-09T09:52:53.694Z,100782.19
2022-08-09T09:55:28.263Z,100780.09
2022-08-09T09:58:16.444Z,100776.91
2022-08-09T10:00:59.007Z,100774.94
2022-08-09T10:03:40.146Z,100777.28
2022-08-09T10:06:07.074Z,100783.84
2022-08-09T10:08:54.412Z,100776.19
2022-08-09T10:11:54.003Z,100776.50
2022-08-09T10:14:30.963Z,100770.09
2022-08-09T10:17:38.708Z,100764.53
2022-08-09T10:19:57.071Z,100755.88
2022-08-09T10:22:39.008Z,100754.72
2022-08-09T10:25:12.438Z,100756.06
2022-08-09T10:27:57.150Z,100751.50
2022-08-09T10:32:04.265Z,100760.28
2022-08-09T10:34:07.710Z,100754.06
2022-08-09T10:36:01.240Z,100760.25
2022-08-09T10:38:54.881Z,100752.31
2022-08-09T10:41:18.587Z,100747.69
2022-08-09T10:44:01.094Z,100747.50
2022-08-09T10:47:01.394Z,100744.38
2022-08-09T10:50:14.802Z,100746.13
2022-08-09T10:53:21.132Z,100741.81
2022-08-09T10:55:58.270Z,100740.16
2022-08-09T10:58:34.701Z,100743.94
2022-08-09T11:03:07.341Z,100742.22
2022-08-09T11:04:19.859Z,100740.56
2022-08-09T11:07:01.537Z,100741.69
2022-08-09T11:09:37.476Z,100739.13
2022-08-09T11:12:26.395Z,100738.19
2022-08-09T11:15:18.468Z,100728.72
2022-08-09T11:17:56.916Z,100731.53
2022-08-09T11:20:43.279Z,100730.75
2022-08-09T11:23:10.545Z,100723.94
2022-08-09T11:25:47.091Z,100721.84
2022-08-09T11:28:34.472Z,100727.25
2022-08-09T11:31:52.943Z,100720.31
2022-08-09T11:34:29.381Z,100722.06
2022-08-09T11:36:57.551Z,100712.03
2022-08-09T11:39:24.471Z,100717.03
2022-08-09T11:41:53.639Z,100711.47
2022-08-09T11:44:44.236Z,100715.94
2022-08-09T11:47:11.000Z,100715.34
2022-08-09T11:50:54.378Z,100713.38
2022-08-09T11:53:20.931Z,100703.59
2022-08-09T11:55:53.587Z,100710.78
2022-08-09T11:58:32.953Z,100703.50
2022-08-09T12:01:37.539Z,100703.50
2022-08-09T12:04:04.153Z,100703.50
2022-08-09T12:06:34.958Z,100700.88
2022-08-09T12:09:06.266Z,100704.81
2022-08-09T12:12:02.286Z,100701.16
2022-08-09T12:14:40.535Z,100695.22
2022-08-09T12:17:34.091Z,100696.34
2022-08-09T12:20:21.922Z,100701.91
2022-08-09T12:22:56.047Z,100700.50
2022-08-09T12:25:36.817Z,100694.38
2022-08-09T12:29:13.271Z,100693.56
2022-08-09T12:31:11.168Z,100685.78
2022-08-09T12:33:58.616Z,100687.72
2022-08-09T12:36:32.420Z,100686.59
2022-08-09T12:39:00.683Z,100682.41
2022-08-09T12:41:33.702Z,100682.41
2022-08-09T12:44:07.895Z,100677.81
2022-08-09T12:46:39.665Z,100680.84
2022-08-09T12:49:08.692Z,100667.97
2022-08-09T12:52:01.448Z,100680.72
2022-08-09T12:54:22.203Z,100677.81
2022-08-09T12:56:53.929Z,100671.59
2022-08-09T12:59:24.521Z,100672.38
2022-08-09T13:02:09.280Z,100667.41
2022-08-09T13:04:38.779Z,100673.50
2022-08-09T13:07:19.553Z,100671.63
2022-08-09T13:09:55.501Z,100668.97
2022-08-09T13:12:28.025Z,100669.28
2022-08-09T13:15:07.457Z,100673.63
2022-08-09T13:18:02.435Z,100669.59
2022-08-09T13:20:50.156Z,100676.69
2022-08-09T13:24:15.936Z,100681.59
2022-08-09T13:26:42.303Z,100676.13
2022-08-09T13:29:17.664Z,100675.47
2022-08-09T13:32:25.451Z,100671.06
2022-08-09T13:34:55.566Z,100673.34
2022-08-09T13:37:50.568Z,100662.19
2022-08-09T13:41:51.052Z,100670.50
2022-08-09T13:42:56.494Z,100671.94
2022-08-09T13:45:32.143Z,100672.81
2022-08-09T13:48:10.665Z,100671.69
2022-08-09T13:50:37.693Z,100665.59
2022-08-09T13:53:04.245Z,100660.16
2022-08-09T13:55:34.226Z,100656.31
2022-08-09T13:58:05.088Z,100657.75
2022-08-09T14:00:46.773Z,100661.72
2022-08-09T14:04:02.622Z,100667.88
2022-08-09T14:06:14.674Z,100667.09
2022-08-09T14:08:46.738Z,100669.28
2022-08-09T14:11:16.077Z,100662.59
2022-08-09T14:14:22.720Z,100668.97
2022-08-09T14:16:30.165Z,100665.88
2022-08-09T14:18:57.322Z,100666.22
2022-08-09T14:21:25.675Z,100658.25
2022-08-09T14:23:57.314Z,100665.28
2022-08-09T14:26:31.463Z,100663.34
2022-08-09T14:29:07.444Z,100664.44
2022-08-09T14:31:51.978Z,100668.91
2022-08-09T14:34:31.873Z,100658.94
2022-08-09T14:37:06.726Z,100670.31
2022-08-09T14:39:40.174Z,100661.75
2022-08-09T14:42:31.669Z,100658.47
2022-08-09T14:46:40.014Z,100658.75
2022-08-09T14:47:58.177Z,100655.72
2022-08-09T14:50:27.673Z,100662.44
2022-08-09T14:52:54.612Z,100650.34
2022-08-09T14:55:21.391Z,100655.41
2022-08-09T14:57:49.179Z,100655.84
2022-08-09T15:00:19.306Z,100648.44
2022-08-09T15:02:47.285Z,100654.56
2022-08-09T15:05:18.313Z,100643.66
2022-08-09T15:07:45.656Z,100646.72
2022-08-09T15:10:24.957Z,100654.19
2022-08-09T15:12:55.664Z,100652.22
2022-08-09T15:15:23.533Z,100645.50
2022-08-09T15:17:52.941Z,100646.88
2022-08-09T15:21:54.922Z,100645.41
2022-08-09T15:23:56.099Z,100645.91
2022-08-09T15:25:57.435Z,100643.34
2022-08-09T15:28:28.521Z,100641.81
2022-08-09T15:31:09.885Z,100641.09
2022-08-09T15:34:04.413Z,100645.75
2022-08-09T15:36:28.807Z,100640.38
2022-08-09T15:38:57.100Z,100638.63
2022-08-09T15:41:31.416Z,100642.13
2022-08-09T15:43:59.680Z,100642.91
2022-08-09T15:46:34.515Z,100631.75
2022-08-09T15:49:22.159Z,100641.03
2022-08-09T15:52:02.857Z,100640.13
2022-08-09T15:54:44.271Z,100638.47
2022-08-09T15:57:19.057Z,100635.59
2022-08-09T16:00:01.867Z,100633.38
2022-08-09T16:02:28.420Z,100635.28
2022-08-09T16:04:55.602Z,100637.81
2022-08-09T16:07:22.495Z,100641.41
2022-08-09T16:10:04.916Z,100638.63
2022-08-09T16:12:32.817Z,100634.06
2022-08-09T16:15:00.340Z,100637.06
2022-08-09T16:17:28.710Z,100636.63
2022-08-09T16:20:04.740Z,100635.47
2022-08-09T16:22:32.415Z,100639.88
2022-08-09T16:25:01.443Z,100636.25
2022-08-09T16:27:29.811Z,100645.38
2022-08-09T16:30:00.693Z,100637.41
2022-08-09T16:32:49.610Z,100643.72
2022-08-09T16:35:56.537Z,100636.31
2022-08-09T16:38:08.078Z,100638.16
2022-08-09T16:40:41.059Z,100645.72
2022-08-09T16:43:08.400Z,100647.28
2022-08-09T16:45:35.071Z,100641.88
2022-08-09T16:48:38.241Z,100652.47
2022-08-09T16:50:59.014Z,100647.13
2022-08-09T16:53:32.157Z,100652.22
2022-08-09T16:56:05.917Z,100647.94
2022-08-09T16:58:36.946Z,100653.25
2022-08-09T17:01:04.705Z,100653.44
2022-08-09T17:03:31.741Z,100656.38
2022-08-09T17:06:07.646Z,100654.28
2022-08-09T17:09:01.432Z,100653.59
2022-08-09T17:11:40.256Z,100653.94
2022-08-09T17:14:16.235Z,100650.97
2022-08-09T17:16:59.732Z,100653.94
2022-08-09T17:19:47.652Z,100651.97
2022-08-09T17:22:16.123Z,100649.50
2022-08-09T17:24:55.407Z,100652.84
2022-08-09T17:27:22.354Z,100654.16
2022-08-09T17:29:50.656Z,100652.06
2022-08-09T17:32:20.430Z,100651.84
2022-08-09T17:35:07.659Z,100649.22
2022-08-09T17:38:11.580Z,100655.72
2022-08-09T17:40:26.468Z,100655.72
2022-08-09T17:42:59.437Z,100664.88
2022-08-09T17:45:37.652Z,100670.31
2022-08-09T17:48:17.157Z,100674.06
2022-08-09T17:50:48.609Z,100682.25
2022-08-09T17:53:23.381Z,100681.53
2022-08-09T17:55:54.083Z,100676.63
2022-08-09T17:58:27.135Z,100687.31
2022-08-09T18:00:56.750Z,100688.75
2022-08-09T18:03:24.947Z,100689.56
2022-08-09T18:05:52.926Z,100697.44
2022-08-09T18:08:22.035Z,100695.53
2022-08-09T18:11:01.591Z,100696.84
2022-08-09T18:13:38.947Z,100703.66
2022-08-09T18:16:12.534Z,100700.00
2022-08-09T18:18:43.052Z,100705.31
2022-08-09T18:21:23.152Z,100707.31
2022-08-09T18:24:10.889Z,100709.06
2022-08-09T18:26:46.349Z,100718.59
2022-08-09T18:30:41.257Z,100723.97
2022-08-09T18:32:05.614Z,100723.81
2022-08-09T18:34:35.170Z,100732.94
2022-08-09T18:37:10.498Z,100739.38
2022-08-09T18:39:53.055Z,100746.50
2022-08-09T18:42:19.843Z,100746.34
2022-08-09T18:44:47.815Z,100750.78
2022-08-09T18:47:17.546Z,100759.06
2022-08-09T18:49:47.330Z,100778.19
2022-08-09T18:52:18.818Z,100797.75
2022-08-09T18:54:55.083Z,100794.44
2022-08-09T18:57:22.914Z,100796.38
2022-08-09T18:59:55.182Z,100800.91
2022-08-09T19:02:30.780Z,100806.84
2022-08-09T19:05:14.960Z,100823.63
2022-08-09T19:08:04.298Z,100829.59
2022-08-09T19:10:37.136Z,100828.97
2022-08-09T19:13:22.970Z,100827.94
2022-08-09T19:15:56.248Z,100836.22
2022-08-09T19:18:34.143Z,100839.22
2022-08-09T19:21:09.579Z,100842.19
2022-08-09T19:24:31.472Z,100849.81
2022-08-09T19:26:31.262Z,100853.63
2022-08-09T19:29:01.688Z,100856.00
2022-08-09T19:31:30.430Z,100857.28
2022-08-09T19:34:21.140Z,100867.69
2022-08-09T19:36:53.583Z,100873.63
2022-08-09T19:39:42.980Z,100873.03
2022-08-09T19:42:08.242Z,100876.22
2022-08-09T19:44:35.416Z,100876.28
2022-08-09T19:47:02.699Z,100872.50
2022-08-09T19:50:06.998Z,100869.13
2022-08-09T19:52:18.311Z,100865.34
2022-08-09T19:54:45.085Z,100868.09
2022-08-09T19:57:12.212Z,100857.59
2022-08-09T19:59:59.344Z,100861.44
2022-08-09T20:04:07.181Z,100870.97
2022-08-09T20:05:15.242Z,100868.09
2022-08-09T20:07:59.760Z,100881.03
2022-08-09T20:10:37.101Z,100885.69
2022-08-09T20:13:05.845Z,100891.22
2022-08-09T20:16:35.537Z,100887.41
2022-08-09T20:18:22.132Z,100885.31
2022-08-09T20:20:50.446Z,100890.59
2022-08-09T20:23:21.139Z,100889.09
2022-08-09T20:25:52.829Z,100893.16
2022-08-09T20:28:34.640Z,100899.06
2022-08-09T20:31:11.204Z,100904.78
2022-08-09T20:33:43.878Z,100907.31
2022-08-09T20:36:11.337Z,100911.56
2022-08-09T20:39:17.038Z,100915.81
2022-08-09T20:41:29.219Z,100909.44
2022-08-09T20:44:02.289Z,100910.31
2022-08-09T20:46:41.882Z,100911.97
2022-08-09T20:49:11.262Z,100914.53
2022-08-09T20:51:40.917Z,100911.34
2022-08-09T20:54:12.804Z,100913.47
2022-08-09T20:56:47.233Z,100925.09
2022-08-09T20:59:17.137Z,100923.41
2022-08-09T21:01:50.294Z,100912.63
2022-08-09T21:05:50.797Z,100918.31
2022-08-09T21:07:11.794Z,100912.19
2022-08-09T21:09:45.804Z,100915.78
2022-08-09T21:12:23.187Z,100912.19
2022-08-09T21:14:49.830Z,100914.31
2022-08-09T21:18:29.568Z,100920.25
2022-08-09T21:20:18.108Z,100912.41
2022-08-09T21:22:52.757Z,100908.81
2022-08-09T21:25:44.071Z,100915.59
2022-08-09T21:28:33.574Z,100921.91
2022-08-09T21:31:13.627Z,100925.94
2022-08-09T21:33:50.768Z,100923.19
2022-08-09T21:36:23.959Z,100928.03
2022-08-09T21:38:57.324Z,100940.31
2022-08-09T21:42:04.788Z,100933.94
2022-08-09T21:44:34.715Z,100932.66
2022-08-09T21:47:04.065Z,100930.13
2022-08-09T21:49:40.246Z,100921.44
2022-08-09T21:52:17.595Z,100928.00
2022-08-09T21:55:02.953Z,100935.78
2022-08-09T21:57:38.734Z,100923.75
2022-08-09T22:00:25.691Z,100934.09
2022-08-09T22:02:58.708Z,100925.63
2022-08-09T22:05:36.848Z,100928.59
2022-08-09T22:08:13.228Z,100926.66
2022-08-09T22:11:49.352Z,100937.03
2022-08-09T22:13:33.897Z,100935.31
2022-08-09T22:16:03.704Z,100923.84
2022-08-09T22:18:30.862Z,100930.59
2022-08-09T22:21:00.343Z,100929.31
2022-08-09T22:23:27.221Z,100928.69
2022-08-09T22:26:07.258Z,100929.25
2022-08-09T22:28:43.570Z,100928.81
2022-08-09T22:31:20.252Z,100937.91
2022-08-09T22:33:55.435Z,100930.66
2022-08-09T22:36:22.328Z,100924.13
2022-08-09T22:38:49.074Z,100926.38
2022-08-09T22:41:15.634Z,100922.56
2022-08-09T22:44:01.873Z,100925.25
2022-08-09T22:48:15.227Z,100925.03
2022-08-09T22:49:16.335Z,100925.63
2022-08-09T22:51:49.580Z,100925.63
2022-08-09T22:54:16.994Z,100920.09
2022-08-09T22:56:48.069Z,100919.00
2022-08-09T22:59:56.774Z,100919.22
2022-08-09T23:02:07.879Z,100913.91
2022-08-09T23:04:34.786Z,100910.72
2022-08-09T23:08:23.318Z,100919.56
2022-08-09T23:10:11.356Z,100921.63
2022-08-09T23:12:38.062Z,100920.38
2022-08-09T23:15:05.459Z,100915.06
2022-08-09T23:17:32.335Z,100916.75
2022-08-09T23:20:01.118Z,100908.53
2022-08-09T23:22:34.309Z,100912.72
2022-08-09T23:25:03.395Z,100905.97
2022-08-09T23:27:29.915Z,100909.09
2022-08-09T23:29:56.458Z,100908.63
2022-08-09T23:32:23.167Z,100905.88
2022-08-09T23:34:49.822Z,100906.28
2022-08-09T23:37:25.936Z,100906.84
2022-08-09T23:39:52.609Z,100898.25
2022-08-09T23:42:19.187Z,100909.22
2022-08-09T23:44:45.813Z,100907.09
2022-08-09T23:47:12.542Z,100911.25
2022-08-09T23:49:39.067Z,100912.03
2022-08-09T23:52:05.699Z,100904.19
2022-08-09T23:54:32.503Z,100914.06
2022-08-09T23:56:59.175Z,100912.75
2022-08-09T23:59:25.970Z,100915.91
